Terminal Aerodrome Forecast
Issued by NWS

Home | Current Version | Previous Version | Text Only | Print | Product List | Glossary On
Versions: 1 2 3 4 5 6 7 8 9 10 11 12 13 14 15
113
FTUS44 KCRP 281823 CCA
TAFLRD
TAF COR
KLRD 281823Z 2818/2918 13012KT P6SM SCT030
     FM290200 13014G18KT P6SM SCT025
     FM290900 15012KT P6SM BKN015
     FM291500 17006KT P6SM SCT035 BKN200=

USA.gov is the U.S. government's official web portal to all federal, state and local government web resources and services.